createdAt,value
2023-03-16T00:00:49.836Z,7.45
2023-03-16T00:03:19.315Z,7.45
2023-03-16T00:05:48.773Z,7.55
2023-03-16T00:08:17.489Z,7.69
2023-03-16T00:10:46.921Z,7.70
2023-03-16T00:13:15.912Z,7.76
2023-03-16T00:15:51.054Z,7.81
2023-03-16T00:18:19.077Z,7.75
2023-03-16T00:20:50.988Z,7.80
2023-03-16T00:23:18.640Z,7.84
2023-03-16T00:25:46.192Z,7.80
2023-03-16T00:28:13.971Z,7.92
2023-03-16T00:30:41.532Z,7.77
2023-03-16T00:33:09.157Z,7.84
2023-03-16T00:35:36.673Z,7.80
2023-03-16T00:38:04.291Z,7.90
2023-03-16T00:40:33.882Z,7.95
2023-03-16T00:43:01.686Z,8.01
2023-03-16T00:45:29.720Z,7.91
2023-03-16T00:47:57.226Z,7.88
2023-03-16T00:50:24.837Z,7.82
2023-03-16T00:52:53.691Z,7.96
2023-03-16T00:55:21.703Z,8.05
2023-03-16T00:57:49.467Z,8.09
2023-03-16T01:00:20.305Z,8.07
2023-03-16T01:02:48.110Z,8.10
2023-03-16T01:05:16.079Z,7.87
2023-03-16T01:07:45.217Z,8.03
2023-03-16T01:10:13.371Z,8.04
2023-03-16T01:12:40.927Z,8.00
2023-03-16T01:15:09.161Z,8.07
2023-03-16T01:17:36.655Z,8.22
2023-03-16T01:20:06.547Z,8.05
2023-03-16T01:22:34.085Z,8.25
2023-03-16T01:25:01.744Z,8.07
2023-03-16T01:27:29.237Z,8.20
2023-03-16T01:29:56.744Z,8.10
2023-03-16T01:32:24.262Z,8.07
2023-03-16T01:34:51.738Z,8.06
2023-03-16T01:37:19.261Z,8.24
2023-03-16T01:39:46.777Z,8.09
2023-03-16T01:42:14.450Z,8.07
2023-03-16T01:45:29.563Z,8.07
2023-03-16T01:47:58.702Z,7.99
2023-03-16T01:50:27.608Z,8.11
2023-03-16T01:52:56.258Z,8.07
2023-03-16T01:55:24.108Z,8.21
2023-03-16T01:57:51.656Z,8.23
2023-03-16T02:00:23.763Z,8.20
2023-03-16T02:02:57.418Z,8.25
2023-03-16T02:05:39.848Z,8.24
2023-03-16T02:08:09.188Z,8.39
2023-03-16T02:10:38.454Z,8.44
2023-03-16T02:13:05.989Z,8.60
2023-03-16T02:15:35.949Z,8.57
2023-03-16T02:18:03.585Z,8.70
2023-03-16T02:20:52.493Z,8.74
2023-03-16T02:23:22.970Z,8.66
2023-03-16T02:25:59.232Z,8.83
2023-03-16T02:28:38.960Z,8.61
2023-03-16T02:31:08.024Z,8.67
2023-03-16T02:33:36.434Z,8.81
2023-03-16T02:36:03.919Z,8.87
2023-03-16T02:38:31.667Z,8.73
2023-03-16T02:41:10.520Z,8.78
2023-03-16T02:43:40.629Z,8.71
2023-03-16T02:46:09.374Z,8.75
2023-03-16T02:48:43.727Z,8.74
2023-03-16T02:51:12.454Z,8.59
2023-03-16T02:53:40.876Z,8.70
2023-03-16T02:56:09.483Z,8.72
2023-03-16T02:58:37.023Z,8.64
2023-03-16T03:01:04.848Z,8.32
2023-03-16T03:03:34.380Z,8.73
2023-03-16T03:06:02.719Z,8.67
2023-03-16T03:08:30.205Z,8.63
2023-03-16T03:10:57.749Z,8.86
2023-03-16T03:13:25.318Z,8.62
2023-03-16T03:15:53.073Z,8.54
2023-03-16T03:18:20.739Z,8.47
2023-03-16T03:20:48.225Z,8.64
2023-03-16T03:23:17.033Z,8.60
2023-03-16T03:25:45.311Z,8.48
2023-03-16T03:28:12.895Z,8.45
2023-03-16T03:30:40.419Z,8.30
2023-03-16T03:33:08.050Z,8.42
2023-03-16T03:35:35.691Z,8.50
2023-03-16T03:38:03.297Z,8.56
2023-03-16T03:40:31.031Z,8.39
2023-03-16T03:42:58.628Z,8.58
2023-03-16T03:45:26.267Z,8.29
2023-03-16T03:47:55.125Z,8.47
2023-03-16T03:50:23.175Z,8.21
2023-03-16T03:52:50.658Z,8.31
2023-03-16T03:55:18.261Z,8.10
2023-03-16T03:57:45.840Z,8.08
2023-03-16T04:00:14.474Z,8.30
2023-03-16T04:02:42.172Z,8.23
2023-03-16T04:05:10.731Z,7.91
2023-03-16T04:07:38.688Z,7.96
2023-03-16T04:10:07.520Z,8.07
2023-03-16T04:12:35.180Z,8.03
2023-03-16T04:15:03.589Z,8.06
2023-03-16T04:17:31.118Z,8.04
2023-03-16T04:19:58.598Z,8.24
2023-03-16T04:22:26.117Z,7.96
2023-03-16T04:24:53.635Z,7.96
2023-03-16T04:27:21.189Z,7.99
2023-03-16T04:29:48.736Z,8.16
2023-03-16T04:32:16.278Z,8.32
2023-03-16T04:34:44.040Z,8.31
2023-03-16T04:37:11.923Z,8.60
2023-03-16T04:39:39.433Z,8.12
2023-03-16T04:42:07.290Z,8.31
2023-03-16T04:44:34.771Z,8.48
2023-03-16T04:47:02.497Z,8.42
2023-03-16T04:49:30.043Z,8.38
2023-03-16T04:51:57.757Z,8.49
2023-03-16T04:54:25.475Z,8.52
2023-03-16T04:56:53.077Z,8.35
2023-03-16T04:59:20.594Z,8.26
2023-03-16T05:01:48.588Z,8.47
2023-03-16T05:04:19.589Z,8.93
2023-03-16T05:06:47.457Z,8.72
2023-03-16T05:09:15.014Z,8.54
2023-03-16T05:11:42.526Z,8.51
2023-03-16T05:14:10.270Z,8.38
2023-03-16T05:16:37.769Z,8.57
2023-03-16T05:19:05.425Z,8.52
2023-03-16T05:21:34.194Z,8.61
2023-03-16T05:24:01.833Z,8.46
2023-03-16T05:26:29.402Z,8.32
2023-03-16T05:28:58.251Z,8.43
2023-03-16T05:31:26.605Z,8.63
2023-03-16T05:33:54.972Z,8.74
2023-03-16T05:36:22.686Z,8.49
2023-03-16T05:38:50.194Z,8.34
2023-03-16T05:41:18.392Z,8.50
2023-03-16T05:43:46.455Z,8.32
2023-03-16T05:46:14.367Z,8.47
2023-03-16T05:48:41.889Z,8.35
2023-03-16T05:51:09.380Z,8.52
2023-03-16T05:53:36.879Z,8.70
2023-03-16T05:56:04.429Z,8.85
2023-03-16T05:58:33.914Z,8.71
2023-03-16T06:01:02.285Z,8.68
2023-03-16T06:03:29.898Z,8.64
2023-03-16T06:05:57.446Z,8.95
2023-03-16T06:08:25.059Z,8.97
2023-03-16T06:10:52.611Z,8.70
2023-03-16T06:13:21.413Z,8.88
2023-03-16T06:15:48.951Z,8.98
2023-03-16T06:18:16.551Z,8.70
2023-03-16T06:20:44.279Z,8.81
2023-03-16T06:23:11.783Z,8.83
2023-03-16T06:25:40.740Z,8.89
2023-03-16T06:28:08.959Z,9.04
2023-03-16T06:30:36.489Z,9.17
2023-03-16T06:33:04.082Z,9.33
2023-03-16T06:35:31.763Z,9.33
2023-03-16T06:37:59.320Z,9.28
2023-03-16T06:40:27.556Z,9.23
2023-03-16T06:42:55.498Z,9.15
2023-03-16T06:45:23.146Z,9.30
2023-03-16T06:47:50.705Z,9.16
2023-03-16T06:50:18.420Z,9.21
2023-03-16T06:52:45.927Z,9.19
2023-03-16T06:55:14.524Z,9.04
2023-03-16T06:57:42.839Z,9.15
2023-03-16T07:00:14.110Z,9.10
2023-03-16T07:02:42.587Z,9.32
2023-03-16T07:05:13.012Z,9.19
2023-03-16T07:07:43.096Z,9.07
2023-03-16T07:10:17.380Z,9.26
2023-03-16T07:12:45.697Z,9.45
2023-03-16T07:15:14.154Z,9.73
2023-03-16T07:17:42.622Z,9.71
2023-03-16T07:20:12.915Z,9.65
2023-03-16T07:22:41.685Z,9.42
2023-03-16T07:25:11.363Z,8.77
2023-03-16T07:27:41.375Z,9.10
2023-03-16T07:30:12.071Z,9.01
2023-03-16T07:32:39.728Z,8.86
2023-03-16T07:35:07.774Z,9.37
2023-03-16T07:37:35.417Z,9.30
2023-03-16T07:40:03.563Z,9.11
2023-03-16T07:42:31.250Z,8.87
2023-03-16T07:44:58.944Z,8.91
2023-03-16T07:47:26.800Z,8.84
2023-03-16T07:49:54.461Z,8.97
2023-03-16T07:52:22.043Z,9.14
2023-03-16T07:54:49.894Z,9.24
2023-03-16T07:57:17.575Z,9.22
2023-03-16T07:59:45.233Z,9.33
2023-03-16T08:02:18.654Z,9.52
2023-03-16T08:04:46.825Z,9.51
2023-03-16T08:07:16.019Z,9.51
2023-03-16T08:09:43.678Z,9.42
2023-03-16T08:12:12.207Z,9.59
2023-03-16T08:14:39.912Z,9.49
2023-03-16T08:17:08.382Z,9.67
2023-03-16T08:19:35.944Z,9.66
2023-03-16T08:22:03.674Z,9.76
2023-03-16T08:24:31.393Z,9.97
2023-03-16T08:26:59.698Z,9.81
2023-03-16T08:29:28.392Z,9.90
2023-03-16T08:31:57.550Z,10.03
2023-03-16T08:34:26.825Z,10.12
2023-03-16T08:36:55.441Z,10.16
2023-03-16T08:39:23.070Z,10.08
2023-03-16T08:41:51.125Z,10.10
2023-03-16T08:44:18.956Z,10.23
2023-03-16T08:46:46.797Z,10.44
2023-03-16T08:49:14.876Z,10.31
2023-03-16T08:51:44.785Z,10.82
2023-03-16T08:54:12.557Z,10.33
2023-03-16T08:56:40.202Z,10.60
2023-03-16T08:59:10.482Z,10.93
2023-03-16T09:01:44.954Z,10.93
2023-03-16T09:04:13.425Z,10.97
2023-03-16T09:06:41.747Z,10.85
2023-03-16T09:09:10.053Z,10.72
2023-03-16T09:11:37.603Z,10.91
2023-03-16T09:14:05.213Z,10.89
2023-03-16T09:16:32.918Z,10.87
2023-03-16T09:19:00.833Z,10.74
2023-03-16T09:21:28.549Z,10.78
2023-03-16T09:23:58.724Z,10.75
2023-03-16T09:26:26.612Z,11.11
2023-03-16T09:28:54.438Z,11.60
2023-03-16T09:31:22.788Z,11.72
2023-03-16T09:33:50.424Z,11.38
2023-03-16T09:36:18.678Z,11.26
2023-03-16T09:38:46.298Z,11.69
2023-03-16T09:41:29.513Z,11.33
2023-03-16T09:44:09.203Z,11.85
2023-03-16T09:46:42.624Z,12.13
2023-03-16T09:49:17.606Z,12.39
2023-03-16T09:52:13.411Z,12.21
2023-03-16T09:54:56.709Z,12.44
2023-03-16T09:57:39.741Z,13.00
2023-03-16T10:00:24.092Z,13.16
2023-03-16T10:03:29.762Z,12.96
2023-03-16T10:06:02.226Z,13.04
2023-03-16T10:08:46.452Z,12.45
2023-03-16T10:11:28.519Z,12.37
2023-03-16T10:14:11.270Z,13.10
2023-03-16T10:16:56.909Z,13.36
2023-03-16T10:19:46.842Z,12.85
2023-03-16T10:22:32.363Z,13.73
2023-03-16T10:25:05.508Z,13.68
2023-03-16T10:27:38.382Z,13.65
2023-03-16T10:30:29.026Z,14.53
2023-03-16T10:33:01.977Z,14.38
2023-03-16T10:35:49.589Z,14.77
2023-03-16T10:38:28.656Z,14.38
2023-03-16T10:40:57.883Z,14.47
2023-03-16T10:43:25.886Z,14.84
2023-03-16T10:45:59.585Z,14.67
2023-03-16T10:48:28.417Z,14.55
2023-03-16T10:50:59.994Z,14.31
2023-03-16T10:53:31.554Z,13.99
2023-03-16T10:56:02.099Z,14.01
2023-03-16T10:58:35.943Z,14.29
2023-03-16T11:01:03.645Z,14.69
2023-03-16T11:03:42.300Z,14.48
2023-03-16T11:06:22.824Z,14.61
2023-03-16T11:08:52.302Z,14.03
2023-03-16T11:11:32.576Z,13.94
2023-03-16T11:14:02.352Z,14.25
2023-03-16T11:16:41.569Z,14.69
2023-03-16T11:19:30.330Z,14.25
2023-03-16T11:22:06.739Z,14.36
2023-03-16T11:24:56.193Z,14.49
2023-03-16T11:27:36.933Z,14.95
2023-03-16T11:30:29.025Z,14.74
2023-03-16T11:32:56.922Z,14.43
2023-03-16T11:35:40.070Z,15.17
2023-03-16T11:38:16.733Z,15.47
2023-03-16T11:41:01.539Z,15.28
2023-03-16T11:43:38.265Z,15.34
2023-03-16T11:46:26.094Z,15.52
2023-03-16T11:49:09.036Z,14.95
2023-03-16T11:51:49.880Z,15.36
2023-03-16T11:54:38.523Z,15.13
2023-03-16T11:57:31.470Z,15.67
2023-03-16T12:00:02.310Z,15.44
2023-03-16T12:02:51.793Z,15.42
2023-03-16T12:05:23.190Z,15.90
2023-03-16T12:07:54.105Z,15.58
2023-03-16T12:10:43.757Z,16.04
2023-03-16T12:13:30.781Z,16.50
2023-03-16T12:16:05.699Z,15.96
2023-03-16T12:18:33.189Z,15.41
2023-03-16T12:21:15.007Z,15.42
2023-03-16T12:23:53.482Z,15.06
2023-03-16T12:26:23.743Z,15.89
2023-03-16T12:28:54.284Z,15.87
2023-03-16T12:31:42.106Z,15.78
2023-03-16T12:34:14.459Z,15.95
2023-03-16T12:37:10.686Z,16.65
2023-03-16T12:39:58.166Z,15.93
2023-03-16T12:42:44.105Z,16.10
2023-03-16T12:45:32.911Z,16.78
2023-03-16T12:48:27.133Z,16.93
2023-03-16T12:50:58.559Z,17.29
2023-03-16T12:53:42.290Z,17.20
2023-03-16T12:56:13.888Z,17.42
2023-03-16T12:58:50.822Z,17.71
2023-03-16T13:01:26.510Z,17.42
2023-03-16T13:04:20.317Z,17.00
2023-03-16T13:06:53.263Z,16.91
2023-03-16T13:09:27.405Z,16.61
2023-03-16T13:11:55.464Z,16.98
2023-03-16T13:14:38.190Z,16.78
2023-03-16T13:17:17.958Z,16.81
2023-03-16T13:19:58.787Z,16.93
2023-03-16T13:22:29.525Z,17.09
2023-03-16T13:25:16.058Z,17.10
2023-03-16T13:27:53.262Z,17.24
2023-03-16T13:30:22.406Z,17.18
2023-03-16T13:32:54.829Z,17.16
2023-03-16T13:35:27.934Z,17.63
2023-03-16T13:37:55.827Z,17.66
2023-03-16T13:40:28.535Z,17.39
2023-03-16T13:42:59.686Z,17.74
2023-03-16T13:45:34.218Z,18.24
2023-03-16T13:48:03.320Z,17.49
2023-03-16T13:50:35.590Z,18.34
2023-03-16T13:53:05.424Z,17.91
2023-03-16T13:55:36.550Z,17.53
2023-03-16T13:58:04.959Z,17.29
2023-03-16T14:00:36.848Z,17.26
2023-03-16T14:03:16.219Z,17.48
2023-03-16T14:05:43.928Z,17.97
2023-03-16T14:08:23.862Z,17.71
2023-03-16T14:10:52.796Z,17.03
2023-03-16T14:13:29.266Z,17.76
2023-03-16T14:16:01.140Z,16.97
2023-03-16T14:18:36.966Z,17.09
2023-03-16T14:21:25.956Z,17.50
2023-03-16T14:24:05.587Z,17.09
2023-03-16T14:26:43.418Z,17.22
2023-03-16T14:29:31.613Z,17.70
2023-03-16T14:32:00.444Z,17.83
2023-03-16T14:34:29.848Z,17.46
2023-03-16T14:37:15.786Z,17.00
2023-03-16T14:39:43.778Z,17.91
2023-03-16T14:42:27.645Z,17.75
2023-03-16T14:44:55.719Z,17.66
2023-03-16T14:47:30.703Z,18.13
2023-03-16T14:50:04.531Z,17.61
2023-03-16T14:52:32.665Z,17.84
2023-03-16T14:55:03.523Z,17.67
2023-03-16T14:57:31.305Z,17.83
2023-03-16T14:59:58.825Z,17.88
2023-03-16T15:02:31.015Z,17.36
2023-03-16T15:04:59.309Z,17.70
2023-03-16T15:07:32.412Z,17.32
2023-03-16T15:10:22.290Z,17.40
2023-03-16T15:12:54.291Z,17.68
2023-03-16T15:15:25.103Z,17.54
2023-03-16T15:17:53.612Z,17.37
2023-03-16T15:20:30.341Z,17.88
2023-03-16T15:22:59.516Z,17.48
2023-03-16T15:25:42.013Z,17.57
2023-03-16T15:28:19.034Z,18.13
2023-03-16T15:30:58.965Z,18.00
2023-03-16T15:33:27.276Z,17.83
2023-03-16T15:35:58.665Z,17.75
2023-03-16T15:38:39.757Z,17.72
2023-03-16T15:41:12.392Z,18.02
2023-03-16T15:43:39.947Z,17.98
2023-03-16T15:46:07.739Z,18.11
2023-03-16T15:48:35.303Z,18.16
2023-03-16T15:51:16.128Z,17.89
2023-03-16T15:53:51.267Z,18.15
2023-03-16T15:56:29.156Z,17.64
2023-03-16T15:59:03.276Z,17.62
2023-03-16T16:01:35.827Z,17.59
2023-03-16T16:04:03.388Z,18.02
2023-03-16T16:06:31.928Z,17.91
2023-03-16T16:08:59.498Z,17.48
2023-03-16T16:11:29.148Z,17.79
2023-03-16T16:13:58.482Z,18.03
2023-03-16T16:16:29.763Z,17.83
2023-03-16T16:18:58.129Z,18.11
2023-03-16T16:21:29.046Z,17.89
2023-03-16T16:23:56.832Z,17.68
2023-03-16T16:26:48.273Z,17.67
2023-03-16T16:29:22.218Z,17.85
2023-03-16T16:31:51.447Z,17.94
2023-03-16T16:34:21.771Z,17.91
2023-03-16T16:36:50.644Z,17.84
2023-03-16T16:39:18.439Z,18.14
2023-03-16T16:41:46.297Z,17.67
2023-03-16T16:44:23.668Z,17.97
2023-03-16T16:46:53.122Z,17.64
2023-03-16T16:49:24.532Z,17.86
2023-03-16T16:51:53.375Z,17.59
2023-03-16T16:54:31.087Z,17.57
2023-03-16T16:57:00.572Z,17.36
2023-03-16T16:59:33.072Z,17.32
2023-03-16T17:02:03.259Z,17.10
2023-03-16T17:04:31.243Z,17.33
2023-03-16T17:07:01.946Z,17.12
2023-03-16T17:09:30.548Z,16.95
2023-03-16T17:12:02.856Z,17.22
2023-03-16T17:14:31.310Z,17.31
2023-03-16T17:17:05.341Z,17.18
2023-03-16T17:19:32.972Z,17.12
2023-03-16T17:22:01.377Z,16.88
2023-03-16T17:24:29.698Z,16.94
2023-03-16T17:27:01.441Z,16.77
2023-03-16T17:29:36.597Z,16.50
2023-03-16T17:32:09.073Z,16.25
2023-03-16T17:34:36.654Z,16.27
2023-03-16T17:37:04.251Z,16.31
2023-03-16T17:39:34.772Z,16.16
2023-03-16T17:42:08.471Z,16.29
2023-03-16T17:44:41.056Z,16.12
2023-03-16T17:47:28.629Z,16.06
2023-03-16T17:49:57.123Z,16.24
2023-03-16T17:52:27.187Z,16.16
2023-03-16T17:54:55.287Z,16.20
2023-03-16T17:57:29.479Z,16.09
2023-03-16T17:59:57.274Z,15.97
2023-03-16T18:02:39.360Z,16.11
2023-03-16T18:05:17.420Z,16.30
2023-03-16T18:07:44.947Z,15.87
2023-03-16T18:10:17.855Z,16.08
2023-03-16T18:12:47.417Z,15.92
2023-03-16T18:15:18.242Z,16.03
2023-03-16T18:17:46.671Z,15.70
2023-03-16T18:20:22.745Z,15.77
2023-03-16T18:22:50.617Z,15.59
2023-03-16T18:25:39.033Z,15.34
2023-03-16T18:28:08.645Z,14.94
2023-03-16T18:30:39.022Z,15.02
2023-03-16T18:33:08.823Z,15.15
2023-03-16T18:35:38.442Z,15.09
2023-03-16T18:38:18.991Z,15.08
2023-03-16T18:40:47.598Z,14.64
2023-03-16T18:43:18.349Z,14.64
2023-03-16T18:45:47.091Z,14.46
2023-03-16T18:48:24.831Z,14.30
2023-03-16T18:50:52.505Z,14.19
2023-03-16T18:53:22.283Z,14.53
2023-03-16T18:55:50.717Z,14.54
2023-03-16T18:58:25.298Z,14.37
2023-03-16T19:01:00.987Z,14.26
2023-03-16T19:03:31.694Z,14.32
2023-03-16T19:06:01.037Z,14.07
2023-03-16T19:08:29.644Z,13.98
2023-03-16T19:11:01.673Z,14.11
2023-03-16T19:13:29.810Z,14.06
2023-03-16T19:15:57.980Z,13.98
2023-03-16T19:18:26.694Z,13.82
2023-03-16T19:20:56.029Z,13.94
2023-03-16T19:23:36.458Z,13.90
2023-03-16T19:26:04.572Z,13.89
2023-03-16T19:28:36.660Z,13.78
2023-03-16T19:31:26.750Z,13.63
2023-03-16T19:33:56.689Z,13.71
2023-03-16T19:36:27.051Z,13.50
2023-03-16T19:38:54.850Z,13.80
2023-03-16T19:41:31.912Z,13.71
2023-03-16T19:44:08.340Z,13.82
2023-03-16T19:46:36.182Z,13.94
2023-03-16T19:49:03.716Z,13.80
2023-03-16T19:51:32.775Z,13.68
2023-03-16T19:54:01.450Z,13.82
2023-03-16T19:56:29.185Z,13.95
2023-03-16T19:58:56.755Z,13.77
2023-03-16T20:01:32.774Z,13.83
2023-03-16T20:04:01.510Z,13.66
2023-03-16T20:06:29.154Z,13.51
2023-03-16T20:08:56.740Z,13.44
2023-03-16T20:11:30.815Z,13.38
2023-03-16T20:13:59.932Z,13.47
2023-03-16T20:16:36.172Z,13.48
2023-03-16T20:19:11.197Z,13.38
2023-03-16T20:21:38.822Z,13.20
2023-03-16T20:24:16.258Z,13.25
2023-03-16T20:26:45.695Z,13.00
2023-03-16T20:29:33.662Z,13.16
2023-03-16T20:32:02.101Z,13.28
2023-03-16T20:34:32.251Z,13.16
2023-03-16T20:37:00.773Z,13.12
2023-03-16T20:39:28.343Z,13.04
2023-03-16T20:41:56.048Z,12.88
2023-03-16T20:44:25.512Z,13.00
2023-03-16T20:46:53.132Z,13.09
2023-03-16T20:49:25.171Z,12.86
2023-03-16T20:51:53.269Z,12.84
2023-03-16T20:54:21.581Z,12.80
2023-03-16T20:56:49.951Z,12.73
2023-03-16T20:59:26.496Z,12.75
2023-03-16T21:01:55.530Z,12.83
2023-03-16T21:04:27.848Z,12.65
2023-03-16T21:06:57.565Z,12.65
2023-03-16T21:09:25.671Z,12.59
2023-03-16T21:11:53.256Z,12.58
2023-03-16T21:14:26.745Z,12.72
2023-03-16T21:16:55.369Z,12.59
2023-03-16T21:19:24.884Z,12.55
2023-03-16T21:21:53.022Z,12.37
2023-03-16T21:24:21.194Z,12.43
2023-03-16T21:26:48.759Z,12.37
2023-03-16T21:29:21.958Z,12.32
2023-03-16T21:31:49.868Z,12.35
2023-03-16T21:34:27.582Z,12.29
2023-03-16T21:36:55.118Z,12.23
2023-03-16T21:39:24.999Z,12.33
2023-03-16T21:41:53.508Z,12.06
2023-03-16T21:44:21.103Z,12.09
2023-03-16T21:46:48.797Z,12.03
2023-03-16T21:49:16.788Z,12.09
2023-03-16T21:51:44.382Z,12.06
2023-03-16T21:54:16.105Z,12.17
2023-03-16T21:56:44.061Z,12.16
2023-03-16T21:59:12.271Z,12.19
2023-03-16T22:01:58.243Z,12.17
2023-03-16T22:04:28.267Z,12.10
2023-03-16T22:06:55.801Z,12.20
2023-03-16T22:09:24.992Z,12.07
2023-03-16T22:11:52.578Z,11.91
2023-03-16T22:14:20.300Z,11.94
2023-03-16T22:16:47.940Z,12.04
2023-03-16T22:19:17.715Z,11.99
2023-03-16T22:21:46.582Z,12.08
2023-03-16T22:24:18.742Z,12.18
2023-03-16T22:26:47.500Z,12.22
2023-03-16T22:29:19.733Z,11.98
2023-03-16T22:31:48.080Z,11.87
2023-03-16T22:34:24.539Z,11.87
2023-03-16T22:36:52.093Z,11.62
2023-03-16T22:39:19.673Z,11.35
2023-03-16T22:41:47.225Z,11.58
2023-03-16T22:44:23.117Z,11.58
2023-03-16T22:46:51.463Z,11.57
2023-03-16T22:49:27.063Z,11.54
2023-03-16T22:51:57.292Z,11.68
2023-03-16T22:54:29.704Z,11.98
2023-03-16T22:56:57.661Z,11.69
2023-03-16T22:59:27.923Z,11.60
2023-03-16T23:01:56.430Z,11.77
2023-03-16T23:04:29.909Z,11.85
2023-03-16T23:06:57.998Z,11.85
2023-03-16T23:09:26.329Z,11.72
2023-03-16T23:11:55.912Z,11.94
2023-03-16T23:14:26.342Z,11.73
2023-03-16T23:16:54.068Z,11.68
2023-03-16T23:19:30.803Z,11.75
2023-03-16T23:22:01.900Z,11.66
2023-03-16T23:24:29.521Z,11.80
2023-03-16T23:26:57.256Z,11.78
2023-03-16T23:29:26.092Z,11.79
2023-03-16T23:31:54.471Z,11.76
2023-03-16T23:34:24.815Z,11.79
2023-03-16T23:36:53.187Z,12.08
2023-03-16T23:39:20.806Z,11.94
2023-03-16T23:41:50.555Z,11.72
2023-03-16T23:44:22.645Z,11.68
2023-03-16T23:46:50.786Z,11.52
2023-03-16T23:49:24.813Z,11.42
2023-03-16T23:51:53.590Z,11.52
2023-03-16T23:54:25.398Z,11.58
2023-03-16T23:56:53.178Z,11.45
2023-03-16T23:59:21.357Z,11.62
